Time;durP1;ratioP1;P1;durP2;ratioP2;P2;SDS_P1;SDS_P2;PMS_P1;PMS_P2;Temp;Humidity;BMP_temperature;BMP_pressure;BME280_temperature;BME280_humidity;BME280_pressure;Samples;Min_cycle;Max_cycle;Signal;HPM_P1;HPM_P2
2022/10/04 00:00:47;;;;;;;4.47;1.02;;;;;;;10.33;54.48;102261.47;4991608;28;20088;-78
2022/10/04 00:03:31;;;;;;;1.98;0.82;;;;;;;10.42;54.48;102266.53;4987942;28;20085;-77
2022/10/04 00:06:00;;;;;;;5.40;1.45;;;;;;;10.42;54.64;102263.91;4978563;28;20064;-78
2022/10/04 00:08:31;;;;;;;4.47;1.35;;;;;;;10.39;54.40;102262.22;5017826;28;20415;-78
2022/10/04 00:11:17;;;;;;;6.53;1.20;;;;;;;10.31;54.55;102260.63;4985092;28;20048;-78
2022/10/04 00:13:50;;;;;;;3.15;1.17;;;;;;;10.26;54.63;102263.31;4979236;28;20043;-78
2022/10/04 00:16:30;;;;;;;2.03;0.70;;;;;;;10.24;54.94;102243.31;4999240;28;20632;-77
2022/10/04 00:19:16;;;;;;;7.50;1.00;;;;;;;10.25;54.81;102245.03;5001472;28;20037;-78
2022/10/04 00:22:11;;;;;;;4.18;1.92;;;;;;;10.29;54.93;102251.94;5006555;28;20042;-80
2022/10/04 00:24:57;;;;;;;3.13;0.90;;;;;;;10.29;54.83;102251.94;4997667;28;20038;-76
2022/10/04 00:27:25;;;;;;;7.53;1.70;;;;;;;10.36;54.73;102250.94;5000279;28;20391;-77
2022/10/04 00:30:05;;;;;;;5.85;2.05;;;;;;;10.27;54.71;102244.13;5022969;28;20054;-78
2022/10/04 00:32:41;;;;;;;4.57;1.20;;;;;;;10.16;55.06;102257.34;4981109;28;20042;-78
2022/10/04 00:35:24;;;;;;;3.55;1.25;;;;;;;10.18;55.04;102247.75;5023839;28;20038;-77
2022/10/04 00:38:05;;;;;;;3.83;1.20;;;;;;;10.21;54.89;102239.88;4996182;28;20419;-77
2022/10/04 00:40:54;;;;;;;5.78;1.13;;;;;;;10.22;55.20;102231.13;4990829;28;20033;-80
2022/10/04 00:43:28;;;;;;;4.85;1.00;;;;;;;10.24;55.17;102225.03;5019507;28;20328;-78
2022/10/04 00:45:58;;;;;;;3.38;1.05;;;;;;;10.24;55.17;102222.41;5019017;28;20037;-78
2022/10/04 00:48:29;;;;;;;4.40;1.55;;;;;;;10.31;55.17;102216.19;5025218;28;20034;-76
2022/10/04 00:51:05;;;;;;;2.83;1.60;;;;;;;10.32;54.99;102216.13;4988672;28;20040;-80
2022/10/04 00:54:01;;;;;;;7.65;1.75;;;;;;;10.33;54.66;102217.88;5002542;28;20040;-74
2022/10/04 00:56:31;;;;;;;4.75;1.00;;;;;;;10.31;54.53;102205.75;5018378;28;20037;-80
2022/10/04 00:58:57;;;;;;;5.22;1.35;;;;;;;10.28;54.67;102208.38;4997706;28;20038;-78
2022/10/04 01:01:26;;;;;;;7.82;1.40;;;;;;;10.24;54.70;102191.06;4987721;28;20442;-75
2022/10/04 01:03:56;;;;;;;2.65;1.10;;;;;;;10.28;54.81;102197.94;4984621;28;20455;-80
2022/10/04 01:06:22;;;;;;;5.03;1.30;;;;;;;10.31;54.68;102193.53;4995165;28;20049;-80
2022/10/04 01:08:54;;;;;;;6.78;2.05;;;;;;;10.13;55.10;102199.09;4985171;28;20257;-78
2022/10/04 01:11:22;;;;;;;;;;;;;;;10.34;54.69;102197.81;4992363;28;20091;-79
2022/10/04 01:13:55;;;;;;;2.67;1.38;;;;;;;10.31;54.57;102190.06;4998346;28;20168;-79
2022/10/04 01:16:28;;;;;;;9.98;2.08;;;;;;;10.31;54.85;102180.47;4991605;28;20564;-81
2022/10/04 01:18:55;;;;;;;5.00;1.85;;;;;;;10.35;54.97;102173.44;5013737;28;20046;-77
2022/10/04 01:21:30;;;;;;;2.17;1.48;;;;;;;10.42;54.68;102175.91;4976888;28;20085;-79
2022/10/04 01:23:56;;;;;;;3.25;1.92;;;;;;;10.48;54.52;102182.78;5002257;28;20046;-78
2022/10/04 01:26:33;;;;;;;6.50;2.05;;;;;;;10.41;54.30;102178.53;4989349;28;20169;-79
2022/10/04 01:29:10;;;;;;;6.18;2.13;;;;;;;10.34;54.94;102176.91;4982852;28;20045;-78
2022/10/04 01:31:42;;;;;;;6.53;2.05;;;;;;;10.39;54.58;102175.06;4981860;28;20521;-78
2022/10/04 01:34:08;;;;;;;7.00;1.98;;;;;;;10.49;54.59;102176.66;4981559;28;20088;-78
2022/10/04 01:36:35;;;;;;;8.25;1.63;;;;;;;10.45;54.45;102174.97;4982133;28;20030;-79
2022/10/04 01:39:02;;;;;;;5.75;1.80;;;;;;;10.44;54.37;102173.25;5016379;28;20133;-77
2022/10/04 01:41:49;;;;;;;3.10;1.38;;;;;;;10.45;54.56;102177.59;5003606;28;20033;-78
2022/10/04 01:44:23;;;;;;;5.72;1.73;;;;;;;10.43;54.55;102168.91;4984847;28;20051;-76
2022/10/04 01:46:53;;;;;;;2.63;1.20;;;;;;;10.38;54.46;102169.00;4985055;28;20071;-78
2022/10/04 01:49:25;;;;;;;6.15;2.42;;;;;;;10.31;54.57;102169.16;5018006;28;20041;-77
2022/10/04 01:52:21;;;;;;;4.32;1.80;;;;;;;10.33;54.24;102159.53;4984898;28;20370;-80
2022/10/04 01:55:23;;;;;;;5.82;2.13;;;;;;;10.27;54.39;102175.31;4981835;28;20527;-79
2022/10/04 01:57:53;;;;;;;7.97;2.65;;;;;;;10.26;54.43;102163.13;4962571;28;20046;-78
2022/10/04 02:00:23;;;;;;;4.70;2.28;;;;;;;10.27;54.68;102154.41;5000504;28;20104;-79
2022/10/04 02:03:07;;;;;;;6.82;2.05;;;;;;;10.22;54.58;102157.97;4999024;28;20038;-79
2022/10/04 02:05:38;;;;;;;5.15;1.55;;;;;;;10.19;54.67;102163.25;5007172;28;20045;-79
2022/10/04 02:08:09;;;;;;;6.95;2.22;;;;;;;10.15;54.57;102161.59;5017059;28;20053;-78
2022/10/04 02:10:38;;;;;;;9.88;2.65;;;;;;;10.03;54.99;102159.16;4983976;28;20034;-80
2022/10/04 02:13:10;;;;;;;10.13;2.25;;;;;;;10.02;54.91;102165.31;4981685;28;20054;-78
2022/10/04 02:15:38;;;;;;;7.20;2.38;;;;;;;9.95;55.03;102159.31;5000699;28;20034;-78
2022/10/04 02:18:12;;;;;;;6.30;2.35;;;;;;;9.95;55.38;102153.25;5003079;28;20046;-79
2022/10/04 02:20:39;;;;;;;6.00;2.67;;;;;;;9.91;55.19;102157.63;5016666;28;20046;-78
2022/10/04 02:23:05;;;;;;;6.70;2.70;;;;;;;9.91;54.97;102147.19;5000685;28;20532;-77
2022/10/04 02:25:31;;;;;;;6.28;2.30;;;;;;;9.83;55.22;102137.75;5001430;28;20030;-79
2022/10/04 02:27:57;;;;;;;8.38;2.72;;;;;;;9.73;55.44;102148.31;5000271;28;20041;-78
2022/10/04 02:30:23;;;;;;;6.10;2.78;;;;;;;9.72;55.11;102146.63;4985651;28;20072;-77
2022/10/04 02:32:59;;;;;;;5.47;1.92;;;;;;;9.68;55.73;102133.59;4987233;28;20491;-79
2022/10/04 02:35:34;;;;;;;3.88;2.47;;;;;;;9.60;55.60;102126.75;4976299;28;20107;-77
2022/10/04 02:38:21;;;;;;;8.27;2.47;;;;;;;9.49;55.82;102120.84;4984211;28;20049;-78
2022/10/04 02:40:52;;;;;;;4.70;2.22;;;;;;;9.49;55.72;102125.22;5006114;28;20037;-78
2022/10/04 02:43:27;;;;;;;4.88;2.00;;;;;;;9.39;55.58;102114.06;4988667;28;20128;-75
2022/10/04 02:46:23;;;;;;;9.55;3.50;;;;;;;9.33;55.99;102117.63;4999434;28;20129;-77
2022/10/04 02:49:01;;;;;;;3.67;2.35;;;;;;;9.34;55.88;102108.94;4982890;28;20044;-79
2022/10/04 02:51:53;;;;;;;5.38;2.05;;;;;;;9.28;56.09;102114.22;4997861;28;20061;-79
2022/10/04 02:54:44;;;;;;;4.15;2.67;;;;;;;9.23;56.23;102100.41;4963821;28;20042;-80
2022/10/04 02:57:19;;;;;;;8.10;2.78;;;;;;;9.32;55.93;102102.88;4993631;28;20050;-80
2022/10/04 02:59:44;;;;;;;8.63;3.28;;;;;;;9.27;56.39;102099.44;5005690;28;20034;-78
2022/10/04 03:02:25;;;;;;;11.18;3.75;;;;;;;9.23;56.33;102103.00;4998022;28;20046;-77
2022/10/04 03:04:55;;;;;;;6.78;3.08;;;;;;;9.27;56.34;102099.44;4973360;28;20104;-79
2022/10/04 03:07:22;;;;;;;8.35;3.00;;;;;;;9.24;56.27;102096.91;5005133;28;20136;-77
2022/10/04 03:09:49;;;;;;;5.43;2.35;;;;;;;9.23;55.85;102100.41;5014080;28;20030;-77
2022/10/04 03:12:15;;;;;;;4.55;2.42;;;;;;;9.21;56.08;102096.94;4980872;28;20160;-76
2022/10/04 03:14:42;;;;;;;4.28;2.90;;;;;;;9.14;55.71;102100.50;4997571;28;20034;-78
2022/10/04 03:17:08;;;;;;;6.75;3.25;;;;;;;9.05;56.01;102095.44;4996049;28;20049;-78
2022/10/04 03:19:34;;;;;;;8.02;3.75;;;;;;;9.00;56.32;102103.31;5000244;28;20044;-78
2022/10/04 03:22:10;;;;;;;5.95;3.47;;;;;;;8.89;56.31;102093.03;5011928;28;20045;-76
2022/10/04 03:24:49;;;;;;;6.93;3.70;;;;;;;8.91;56.77;102093.00;4996620;28;20085;-78
2022/10/04 03:27:35;;;;;;;6.68;3.63;;;;;;;8.95;56.39;102095.56;5003703;28;20053;-78
2022/10/04 03:30:00;;;;;;;7.40;3.20;;;;;;;8.93;56.58;102091.25;4988587;28;20080;-75
2022/10/04 03:32:29;;;;;;;7.53;3.33;;;;;;;8.91;56.47;102093.00;4995328;28;20337;-79
2022/10/04 03:35:29;;;;;;;7.15;2.92;;;;;;;8.89;56.80;102082.59;4981294;28;20033;-77
2022/10/04 03:37:57;;;;;;;8.25;3.08;;;;;;;8.91;56.53;102088.66;4991245;28;20851;-78
2022/10/04 03:40:27;;;;;;;7.80;2.60;;;;;;;8.97;56.24;102077.28;4981216;28;20516;-77
2022/10/04 03:42:53;;;;;;;3.25;2.63;;;;;;;8.91;56.54;102072.16;4996451;28;20092;-78
2022/10/04 03:45:22;;;;;;;7.55;3.28;;;;;;;8.99;56.64;102080.75;4981265;28;20042;-77
2022/10/04 03:47:51;;;;;;;6.38;2.85;;;;;;;9.00;56.23;102076.38;4962711;28;20111;-78
2022/10/04 03:50:32;;;;;;;3.80;2.72;;;;;;;8.92;55.84;102066.94;4987569;28;20052;-78
2022/10/04 03:53:04;;;;;;;8.05;4.00;;;;;;;8.83;56.33;102071.38;4999956;28;20074;-78
2022/10/04 03:55:38;;;;;;;10.18;3.95;;;;;;;8.75;56.27;102066.28;4984784;28;20208;-78
2022/10/04 03:58:05;;;;;;;11.82;3.58;;;;;;;8.79;56.22;102062.75;4980337;28;20100;-78
2022/10/04 04:00:36;;;;;;;7.43;3.28;;;;;;;8.77;56.08;102059.31;5003097;28;20069;-78
2022/10/04 04:03:11;;;;;;;8.60;4.25;;;;;;;8.76;56.40;102068.88;4980185;28;20515;-79
2022/10/04 04:05:49;;;;;;;9.57;3.17;;;;;;;8.73;56.26;102068.91;4998516;28;20041;-78
2022/10/04 04:08:15;;;;;;;8.55;3.70;;;;;;;8.75;56.37;102071.50;5019462;28;20042;-77
2022/10/04 04:10:48;;;;;;;9.48;4.55;;;;;;;8.68;56.10;102069.84;4988413;28;20048;-77
2022/10/04 04:13:30;;;;;;;6.78;3.72;;;;;;;8.62;56.65;102062.09;4985648;28;20446;-78
2022/10/04 04:15:59;;;;;;;3.85;3.20;;;;;;;8.64;56.69;102063.78;4997173;28;20755;-78
2022/10/04 04:18:30;;;;;;;7.45;3.53;;;;;;;8.63;56.22;102061.19;4985163;28;20042;-80
2022/10/04 04:21:00;;;;;;;11.20;3.63;;;;;;;8.57;56.37;102063.00;4999289;28;20044;-77
2022/10/04 04:23:31;;;;;;;4.22;3.72;;;;;;;8.56;56.60;102071.72;5004233;28;20048;-77
2022/10/04 04:26:13;;;;;;;7.32;4.20;;;;;;;8.51;56.73;102070.88;4981149;28;22398;-77
2022/10/04 04:28:43;;;;;;;15.50;4.57;;;;;;;8.50;57.11;102065.72;5003015;28;20176;-77
2022/10/04 04:31:19;;;;;;;8.95;3.78;;;;;;;8.54;56.93;102072.63;4989821;28;20037;-79
2022/10/04 04:33:51;;;;;;;7.25;3.95;;;;;;;8.46;56.49;102072.69;4999080;28;20095;-77
2022/10/04 04:36:16;;;;;;;6.35;4.68;;;;;;;8.50;56.65;102066.56;5020789;28;20037;-78
2022/10/04 04:41:34;;;;;;;11.07;3.17;;;;;;;8.43;56.70;102064.94;4966057;28;20041;-79
2022/10/04 04:44:00;;;;;;;5.15;3.33;;;;;;;8.43;57.25;102064.06;4987931;28;20074;-76
2022/10/04 04:46:27;;;;;;;10.05;4.22;;;;;;;8.45;57.49;102067.50;4981201;28;20217;-79
2022/10/04 04:49:01;;;;;;;6.50;4.63;;;;;;;8.46;56.94;102069.25;5004881;28;20034;-79
2022/10/04 04:51:30;;;;;;;8.70;4.55;;;;;;;8.35;57.35;102062.41;5005242;28;20042;-80
2022/10/04 04:53:56;;;;;;;12.02;5.10;;;;;;;8.38;57.28;102066.69;4995924;28;20038;-78
2022/10/04 04:56:27;;;;;;;6.60;4.47;;;;;;;8.42;57.50;102063.19;5004230;28;20053;-79
2022/10/04 04:58:55;;;;;;;12.77;5.90;;;;;;;8.40;57.52;102067.56;5017220;28;20388;-79
2022/10/04 05:01:23;;;;;;;11.65;5.05;;;;;;;8.35;57.71;102056.34;5019235;28;20091;-78
2022/10/04 05:04:07;;;;;;;11.93;5.35;;;;;;;8.46;57.48;102059.66;4987403;28;20056;-79
2022/10/04 05:06:35;;;;;;;8.73;5.25;;;;;;;8.39;57.46;102052.81;4986002;28;20702;-79
2022/10/04 05:09:03;;;;;;;12.25;5.80;;;;;;;8.31;57.78;102052.88;4991483;28;20141;-79
2022/10/04 05:11:31;;;;;;;13.63;5.18;;;;;;;8.32;57.98;102048.56;5002398;28;20138;-78
2022/10/04 05:14:04;;;;;;;16.60;7.50;;;;;;;8.26;58.00;102048.63;5016975;28;20114;-77
2022/10/04 05:16:42;;;;;;;12.18;6.15;;;;;;;8.25;57.91;102045.16;5018981;28;20036;-79
2022/10/04 05:19:15;;;;;;;11.32;5.40;;;;;;;8.22;58.15;102045.19;5003637;28;20112;-80
2022/10/04 05:21:46;;;;;;;11.10;5.60;;;;;;;8.28;57.80;102039.06;5001334;28;20616;-79
2022/10/04 05:24:23;;;;;;;17.33;6.28;;;;;;;8.22;57.89;102042.56;5001905;28;20041;-78
2022/10/04 05:26:53;;;;;;;9.65;5.05;;;;;;;8.17;58.16;102039.19;4977920;28;20139;-78
2022/10/04 05:29:22;;;;;;;14.32;5.50;;;;;;;8.20;57.81;102043.47;5001777;28;20033;-79
2022/10/04 05:32:01;;;;;;;11.15;5.50;;;;;;;8.25;57.76;102045.16;5000608;28;20037;-79
2022/10/04 05:34:36;;;;;;;16.90;6.30;;;;;;;8.24;57.61;102043.44;4984599;28;20038;-76
2022/10/04 05:37:28;;;;;;;9.73;6.03;;;;;;;8.26;57.75;102040.81;5000431;28;20046;-80
2022/10/04 05:40:00;;;;;;;;;;;;;;;8.39;57.78;102042.41;4972742;28;20056;-78
2022/10/04 05:42:38;;;;;;;12.10;6.28;;;;;;;8.41;57.90;102045.84;5003140;28;20478;-76
2022/10/04 05:45:19;;;;;;;21.25;6.55;;;;;;;8.41;58.04;102045.84;4996581;28;20044;-77
2022/10/04 05:47:48;;;;;;;18.00;6.32;;;;;;;8.45;57.95;102042.31;5007273;28;20069;-79
2022/10/04 05:50:18;;;;;;;9.63;6.40;;;;;;;8.45;58.22;102041.44;4997554;28;20040;-77
2022/10/04 05:52:48;;;;;;;12.90;6.28;;;;;;;8.44;58.04;102035.38;4994846;28;20046;-80
2022/10/04 05:55:20;;;;;;;19.23;5.97;;;;;;;8.56;58.19;102040.44;4993910;28;20594;-79
2022/10/04 05:58:00;;;;;;;20.80;6.65;;;;;;;8.64;57.87;102042.09;4999562;28;20046;-81
2022/10/04 06:01:05;;;;;;;12.82;5.47;;;;;;;8.72;57.98;102040.28;5003492;28;20088;-80
2022/10/04 06:03:49;;;;;;;11.18;6.00;;;;;;;8.76;57.41;102047.16;4971348;28;20128;-78
2022/10/04 06:06:43;;;;;;;11.88;7.05;;;;;;;8.82;57.42;102041.00;5019010;28;20607;-78
2022/10/04 06:09:36;;;;;;;12.45;6.47;;;;;;;8.97;57.40;102046.00;4985263;28;20041;-79
2022/10/04 06:12:17;;;;;;;10.32;5.35;;;;;;;9.07;56.85;102041.50;4985096;28;20490;-80
2022/10/04 06:15:24;;;;;;;10.90;5.32;;;;;;;9.10;56.82;102041.47;5000506;28;20119;-79
2022/10/04 06:17:57;;;;;;;11.07;5.70;;;;;;;9.08;56.96;102032.81;4981525;28;20050;-81
2022/10/04 06:20:45;;;;;;;10.88;5.97;;;;;;;9.21;57.32;102036.06;4985258;28;20049;-77
2022/10/04 06:23:19;;;;;;;11.32;6.88;;;;;;;9.38;56.86;102036.66;4983096;28;20054;-79
2022/10/04 06:25:55;;;;;;;12.13;6.50;;;;;;;9.50;56.26;102025.16;5001900;28;20038;-77
2022/10/04 06:28:35;;;;;;;11.35;6.47;;;;;;;9.70;55.71;102030.91;4988658;28;20041;-81
2022/10/04 06:31:35;;;;;;;9.38;5.38;;;;;;;10.02;56.04;102030.31;5002163;28;20539;-79
2022/10/04 06:34:31;;;;;;;14.55;6.03;;;;;;;10.40;54.96;102035.69;4984796;28;20049;-76
2022/10/04 06:37:33;;;;;;;12.32;5.70;;;;;;;11.60;53.20;102033.78;4980967;28;20164;-78
2022/10/04 06:40:33;;;;;;;7.20;6.03;;;;;;;12.29;51.99;102038.94;5004238;28;20056;-79
2022/10/04 06:43:22;;;;;;;8.82;5.25;;;;;;;12.13;51.13;102030.63;4974461;28;20474;-79
2022/10/04 06:46:08;;;;;;;13.48;5.47;;;;;;;13.29;48.28;102020.13;4993266;28;20040;-79
2022/10/04 06:48:34;;;;;;;11.35;5.78;;;;;;;14.61;44.99;102020.69;4996267;28;20045;-78
2022/10/04 06:51:11;;;;;;;5.30;3.92;;;;;;;16.01;44.14;102020.19;5000590;28;20113;-80
2022/10/04 06:53:37;;;;;;;7.70;3.20;;;;;;;17.62;39.66;102015.06;5014547;28;20113;-80
2022/10/04 06:56:20;;;;;;;6.45;3.08;;;;;;;18.68;36.23;102016.47;5015793;28;20807;-80
2022/10/04 06:59:22;;;;;;;9.75;3.75;;;;;;;18.94;33.48;102016.81;5004818;28;20050;-78
2022/10/04 07:01:52;;;;;;;;;;;;;;;18.97;32.32;102008.69;4991179;28;20523;-79
2022/10/04 07:04:29;;;;;;;5.25;2.30;;;;;;;18.69;33.88;102012.88;5016824;28;19909;-79
2022/10/04 07:07:34;;;;;;;9.48;2.90;;;;;;;19.27;32.44;102009.53;4976213;28;20038;-80
2022/10/04 07:10:19;;;;;;;6.38;2.47;;;;;;;19.92;32.24;102003.00;4991207;28;20061;-80
2022/10/04 07:12:57;;;;;;;10.43;4.10;;;;;;;19.87;30.61;101995.31;4981810;28;20451;-80
2022/10/04 07:15:29;;;;;;;10.98;3.38;;;;;;;20.42;31.63;102000.81;4980727;28;20049;-80
2022/10/04 07:17:57;;;;;;;12.50;3.35;;;;;;;21.28;28.47;102003.94;4978039;28;20615;-80
2022/10/04 07:20:32;;;;;;;21.08;7.72;;;;;;;22.37;28.03;102001.66;4999930;28;20360;-79
2022/10/04 07:23:29;;;;;;;6.88;2.50;;;;;;;22.87;27.66;102009.56;4999505;28;20040;-78
2022/10/04 07:26:01;;;;;;;8.38;3.33;;;;;;;23.39;25.35;102003.00;4991362;28;20040;-80
2022/10/04 07:31:16;;;;;;;6.25;2.58;;;;;;;24.23;26.11;102019.50;5017230;28;20041;-80
2022/10/04 07:33:47;;;;;;;9.63;3.22;;;;;;;24.12;25.06;102011.50;4961844;28;20068;-80
2022/10/04 07:36:19;;;;;;;9.20;3.45;;;;;;;24.62;24.95;102011.09;4988853;28;20103;-81
2022/10/04 07:38:50;;;;;;;10.98;5.15;;;;;;;24.38;24.54;102005.91;4980324;28;20038;-84
2022/10/04 07:41:27;;;;;;;;;;;;;;;24.04;25.09;102003.28;4994520;28;20048;-82
2022/10/04 07:43:58;;;;;;;4.72;2.90;;;;;;;23.78;26.38;102008.00;4994086;28;20383;-78
2022/10/04 07:46:46;;;;;;;6.13;3.20;;;;;;;23.76;25.26;102010.78;5000723;28;20042;-83
2022/10/04 07:49:17;;;;;;;10.07;3.03;;;;;;;23.42;26.17;101997.41;4981168;28;20038;-78
2022/10/04 07:52:06;;;;;;;5.63;2.88;;;;;;;22.56;27.00;102006.50;5016836;28;20037;-80
2022/10/04 07:54:37;;;;;;;6.22;2.63;;;;;;;22.49;27.55;102007.91;4978642;28;20411;-79
2022/10/04 07:57:16;;;;;;;8.05;3.45;;;;;;;23.13;27.01;102001.44;4992622;28;20042;-80
2022/10/04 08:00:01;;;;;;;10.50;3.10;;;;;;;23.62;25.89;102011.03;5019335;28;20105;-77
2022/10/04 08:02:32;;;;;;;8.35;2.65;;;;;;;24.16;26.25;102015.63;5018769;28;20403;-82
2022/10/04 08:05:20;;;;;;;6.93;2.90;;;;;;;24.62;24.73;102014.59;5003926;28;20033;-82
2022/10/04 08:07:55;;;;;;;10.43;5.05;;;;;;;24.97;24.61;102010.84;4999554;28;20042;-82
2022/10/04 08:10:49;;;;;;;6.22;3.03;;;;;;;25.66;23.90;102014.81;4988533;28;20042;-78
2022/10/04 08:13:20;;;;;;;6.45;2.45;;;;;;;25.75;24.05;102005.97;4981206;28;20582;-78
2022/10/04 08:15:47;;;;;;;4.10;2.35;;;;;;;24.42;24.64;102002.88;4999863;28;20144;-81
2022/10/04 08:18:47;;;;;;;8.93;1.83;;;;;;;24.19;24.90;102007.41;4999504;28;20782;-82
2022/10/04 08:21:22;;;;;;;2.95;2.10;;;;;;;24.19;25.75;102001.19;4977440;28;20037;-80
2022/10/04 08:24:18;;;;;;;5.60;1.85;;;;;;;24.18;24.92;102003.00;4991612;28;20404;-82
2022/10/04 08:27:01;;;;;;;5.43;2.15;;;;;;;23.97;25.58;102005.59;4981942;28;20061;-81
2022/10/04 08:29:50;;;;;;;5.97;2.53;;;;;;;23.85;25.20;101995.00;4988387;28;20069;-76
2022/10/04 08:32:37;;;;;;;7.55;1.80;;;;;;;23.37;25.85;101988.91;4996424;28;20188;-80
2022/10/04 08:35:25;;;;;;;5.32;1.85;;;;;;;23.42;26.86;101992.06;4988365;28;20100;-79
2022/10/04 08:38:06;;;;;;;4.47;1.70;;;;;;;22.35;27.75;102005.41;4973812;28;20172;-79
2022/10/04 08:40:35;;;;;;;5.18;2.00;;;;;;;22.99;26.85;101995.34;4979251;28;20144;-78
2022/10/04 08:43:12;;;;;;;6.07;1.60;;;;;;;22.43;27.61;101991.53;5012967;28;20768;-77
2022/10/04 08:46:16;;;;;;;4.10;1.95;;;;;;;20.43;30.07;101987.41;5003800;28;20488;-78
2022/10/04 08:48:57;;;;;;;5.20;2.03;;;;;;;19.57;31.78;101976.88;4923193;29;20521;-79
2022/10/04 08:52:00;;;;;;;6.07;2.20;;;;;;;19.40;32.01;101979.66;4969560;28;20050;-80
2022/10/04 08:54:59;;;;;;;8.32;1.67;;;;;;;18.95;32.43;101971.69;5019375;28;20042;-78
2022/10/04 08:57:40;;;;;;;8.20;1.98;;;;;;;18.15;33.45;101972.63;5000516;28;20057;-78
2022/10/04 09:00:25;;;;;;;7.03;2.30;;;;;;;18.51;34.27;101979.50;5001250;28;20037;-77
2022/10/04 09:03:18;;;;;;;5.45;2.42;;;;;;;16.97;36.51;101979.63;5028372;28;20052;-82
2022/10/04 09:05:50;;;;;;;6.93;2.50;;;;;;;17.19;35.68;101980.25;4990912;28;20054;-78
2022/10/04 09:08:25;;;;;;;5.90;2.35;;;;;;;17.95;35.60;101974.56;4999388;28;20041;-79
2022/10/04 09:11:12;;;;;;;6.20;2.45;;;;;;;18.76;34.23;101965.72;4982882;28;20520;-80
2022/10/04 09:14:05;;;;;;;6.40;2.70;;;;;;;19.07;33.81;101964.81;4982677;28;20144;-77
2022/10/04 09:16:45;;;;;;;6.53;2.40;;;;;;;19.20;33.77;101971.09;4985528;28;20038;-78
2022/10/04 09:19:44;;;;;;;9.70;3.28;;;;;;;17.94;35.50;101970.22;5016177;28;20053;-78
2022/10/04 09:22:35;;;;;;;9.90;3.10;;;;;;;16.49;38.05;101971.38;4986554;28;20129;-79
2022/10/04 09:25:09;;;;;;;5.05;2.55;;;;;;;16.65;38.10;101966.19;5015965;28;20219;-78
2022/10/04 09:27:54;;;;;;;8.43;3.55;;;;;;;16.06;39.32;101964.59;4987203;28;20298;-78
2022/10/04 09:30:59;;;;;;;9.80;3.05;;;;;;;15.86;39.86;101970.75;4986138;28;20152;-77
2022/10/04 09:33:48;;;;;;;4.57;2.72;;;;;;;15.54;39.72;101963.34;4979285;28;20096;-80
2022/10/04 09:36:39;;;;;;;7.45;2.60;;;;;;;16.03;39.68;101970.03;5018050;28;20566;-76
2022/10/04 09:39:14;;;;;;;10.70;3.25;;;;;;;16.24;38.88;101963.72;5015309;28;20070;-76
2022/10/04 09:41:59;;;;;;;7.43;2.63;;;;;;;16.03;38.52;101949.78;4981604;28;20042;-82
2022/10/04 09:44:31;;;;;;;5.65;3.33;;;;;;;15.61;39.66;101949.91;4999776;28;20045;-80
2022/10/04 09:47:19;;;;;;;5.55;2.95;;;;;;;17.51;37.77;101951.34;5000007;28;20152;-77
2022/10/04 09:50:00;;;;;;;10.02;2.33;;;;;;;17.17;36.72;101945.13;4986980;28;20033;-77
2022/10/04 09:52:38;;;;;;;7.45;3.35;;;;;;;18.59;35.66;101945.50;4982195;28;20504;-79
2022/10/04 09:55:19;;;;;;;13.27;3.15;;;;;;;17.97;35.30;101937.47;5015834;28;20088;-80
2022/10/04 09:57:57;;;;;;;12.05;3.75;;;;;;;17.14;37.22;101945.31;4978399;28;20104;-80
2022/10/04 10:00:28;;;;;;;7.82;3.08;;;;;;;16.53;38.37;101940.38;4985729;28;20044;-79
2022/10/04 10:03:24;;;;;;;6.80;2.42;;;;;;;17.27;38.04;101939.38;4988348;28;20061;-79
2022/10/04 10:05:58;;;;;;;5.75;2.17;;;;;;;17.58;35.42;101942.19;4999258;28;20081;-80
2022/10/04 10:09:01;;;;;;;10.80;2.65;;;;;;;16.72;36.65;101940.34;4985386;28;20073;-78
2022/10/04 10:15:11;;;;;;;3.78;1.23;;;;;;;16.71;38.58;101939.50;5035748;28;20098;-79
2022/10/04 10:17:44;;;;;;;7.53;1.30;;;;;;;17.72;36.21;101944.09;4991280;28;20050;-79
2022/10/04 10:20:34;;;;;;;9.10;1.27;;;;;;;17.35;35.16;101937.19;4996577;28;20742;-80
2022/10/04 10:23:22;;;;;;;4.75;1.20;;;;;;;18.07;34.10;101933.34;4998755;28;20052;-78
2022/10/04 10:26:15;;;;;;;5.93;1.33;;;;;;;17.10;36.00;101925.25;5019704;28;20041;-76
2022/10/04 10:28:53;;;;;;;5.10;1.42;;;;;;;18.42;35.43;101926.13;4974144;28;20046;-80
2022/10/04 10:32:00;;;;;;;4.57;1.63;;;;;;;16.92;35.76;101927.03;5000419;28;20040;-77
2022/10/04 10:34:41;;;;;;;5.53;2.05;;;;;;;16.52;37.97;101921.06;4992297;28;20041;-79
2022/10/04 10:37:15;;;;;;;5.45;1.75;;;;;;;16.59;38.09;101918.97;5006686;28;20104;-79
2022/10/04 10:40:15;;;;;;;7.13;1.85;;;;;;;17.24;37.05;101919.25;5016271;28;20391;-78
2022/10/04 10:42:53;;;;;;;7.25;1.15;;;;;;;18.09;34.62;101912.13;4998044;28;20038;-80
2022/10/04 10:45:34;;;;;;;4.43;1.10;;;;;;;19.18;33.52;101909.38;4993953;28;20042;-80
2022/10/04 10:48:32;;;;;;;5.45;0.93;;;;;;;18.92;34.11;101907.44;4991781;28;20045;-80
2022/10/04 10:51:29;;;;;;;4.15;1.08;;;;;;;18.63;34.47;101900.25;4982727;28;20515;-81
2022/10/04 10:54:30;;;;;;;2.88;0.88;;;;;;;18.92;32.57;101886.22;4998673;28;20064;-79
2022/10/04 10:57:00;;;;;;;5.68;0.98;;;;;;;17.54;35.23;101885.13;4958335;28;20601;-79
2022/10/04 10:59:46;;;;;;;4.60;1.30;;;;;;;18.22;34.87;101873.50;4989781;28;20038;-77
2022/10/04 11:02:21;;;;;;;2.20;0.65;;;;;;;18.58;34.41;101873.16;4997341;28;20042;-77
2022/10/04 11:04:55;;;;;;;6.30;1.58;;;;;;;18.32;34.26;101856.16;4982572;28;20038;-78
2022/10/04 11:07:49;;;;;;;4.35;0.90;;;;;;;18.59;32.87;101853.69;5004563;28;20322;-77
2022/10/04 11:10:33;;;;;;;5.40;1.10;;;;;;;18.35;35.12;101855.97;4997740;28;20162;-80
2022/10/04 11:13:14;;;;;;;4.85;1.00;;;;;;;18.56;34.98;101869.75;4997443;28;20474;-77
2022/10/04 11:16:20;;;;;;;2.88;1.58;;;;;;;19.69;32.05;101877.97;5015028;28;20041;-80
2022/10/04 11:19:10;;;;;;;6.55;1.77;;;;;;;18.21;33.91;101867.34;4982240;28;20499;-79
2022/10/04 11:22:11;;;;;;;3.20;0.88;;;;;;;17.49;36.03;101881.84;4988751;28;20034;-80
2022/10/04 11:25:16;;;;;;;4.68;1.40;;;;;;;16.68;37.26;101878.09;4997547;28;20038;-79
2022/10/04 11:28:01;;;;;;;6.88;1.75;;;;;;;17.61;35.89;101886.50;5013618;28;20292;-79
2022/10/04 11:31:05;;;;;;;4.43;1.95;;;;;;;17.24;36.64;101891.03;4975857;28;20056;-78
2022/10/04 11:33:53;;;;;;;5.65;1.52;;;;;;;17.95;35.44;101895.22;4997054;28;20095;-78
2022/10/04 11:36:40;;;;;;;6.00;1.50;;;;;;;16.32;38.24;101887.72;5016800;28;20048;-77
2022/10/04 11:39:29;;;;;;;7.00;0.95;;;;;;;17.03;37.19;101874.53;5014857;28;20363;-78
2022/10/04 11:42:10;;;;;;;6.55;2.05;;;;;;;16.44;37.64;101859.03;4985066;28;20133;-79
2022/10/04 11:44:55;;;;;;;6.13;1.98;;;;;;;16.20;38.39;101875.16;4978049;28;20030;-77
2022/10/04 11:47:32;;;;;;;6.88;1.60;;;;;;;16.39;38.08;101868.03;4990126;28;20042;-78
2022/10/04 11:50:26;;;;;;;7.05;2.13;;;;;;;15.26;39.93;101873.28;4974538;28;20030;-78
2022/10/04 11:53:25;;;;;;;7.22;1.88;;;;;;;17.20;36.62;101862.22;4979168;28;20050;-79
2022/10/04 11:56:09;;;;;;;5.18;1.08;;;;;;;18.71;35.09;101862.69;4991186;28;20038;-80
2022/10/04 11:59:01;;;;;;;5.07;1.65;;;;;;;18.17;34.44;101863.13;5010513;28;20042;-78
2022/10/04 12:01:46;;;;;;;;;;;;;;;17.89;35.27;101853.25;5015226;28;20125;-79
2022/10/04 12:04:28;;;;;;;4.38;0.90;;;;;;;18.55;35.14;101856.63;4994445;28;20403;-79
2022/10/04 12:07:32;;;;;;;3.78;0.85;;;;;;;18.81;33.42;101847.09;4995259;28;20030;-77
2022/10/04 12:10:37;;;;;;;6.13;1.42;;;;;;;17.32;35.93;101843.09;4979863;28;20038;-79
2022/10/04 12:13:41;;;;;;;5.72;1.50;;;;;;;18.27;34.49;101843.19;4989576;28;20054;-83
2022/10/04 12:16:55;;;;;;;3.10;1.42;;;;;;;17.36;36.23;101835.88;4959225;28;20458;-80
2022/10/04 12:19:32;;;;;;;4.10;1.40;;;;;;;17.60;36.07;101831.06;4991821;28;20121;-79
2022/10/04 12:22:35;;;;;;;5.63;1.15;;;;;;;17.38;36.26;101820.75;4978226;28;20359;-81
2022/10/04 12:25:15;;;;;;;4.72;1.15;;;;;;;18.23;34.43;101819.66;5000123;28;20037;-79
2022/10/04 12:28:10;;;;;;;4.88;0.90;;;;;;;19.02;33.06;101829.13;4991516;28;20064;-78
2022/10/04 12:30:45;;;;;;;5.35;0.88;;;;;;;18.36;33.48;101817.13;4979365;28;20069;-79
2022/10/04 12:33:48;;;;;;;5.05;1.63;;;;;;;17.69;34.29;101808.56;4983755;28;20050;-79